This is the latest recevied weather packets stored in our database for station/object DK1ZX-10. If no packets are shown the sender has not sent any weather packets the latest 10 day(s).
| Time | Temp. | Humidity | Pressure | Rain* | Wind** | Luminosity | Snow |
|---|---|---|---|---|---|---|---|
| 1778172930 | 14.44° C | 51% | 1015.4 hPa | - | - | - | - |
| 1778171730 | 16.11° C | 46% | 1015.4 hPa | - | - | - | - |
| 1778170530 | 17.78° C | 44% | 1015.3 hPa | - | - | - | - |
| 1778169330 | 16.11° C | 47% | 1015.3 hPa | - | - | - | - |
| 1778168130 | 17.22° C | 43% | 1015.2 hPa | - | - | - | - |
| 1778166930 | 18.89° C | 41% | 1015.2 hPa | - | - | - | - |
| 1778165730 | 18.89° C | 41% | 1015.2 hPa | - | - | - | - |
| 1778164530 | 18.33° C | 45% | 1015.2 hPa | - | - | - | - |
| 1778163330 | 17.22° C | 48% | 1015.1 hPa | - | - | - | - |
| 1778162130 | 19.44° C | 45% | 1015.1 hPa | - | - | - | - |
| 1778160930 | 17.78° C | 48% | 1015.3 hPa | - | - | - | - |
| 1778159730 | 17.78° C | 47% | 1015.2 hPa | - | - | - | - |
| 1778158530 | 17.78° C | 47% | 1015.1 hPa | - | - | - | - |
| 1778157329 | 18.33° C | 45% | 1014.9 hPa | - | - | - | - |
| 1778156129 | 17.22° C | 52% | 1014.7 hPa | - | - | - | - |
| 1778154929 | 15° C | 58% | 1014.6 hPa | - | - | - | - |
| 1778153729 | 14.44° C | 57% | 1014.6 hPa | - | - | - | - |
| 1778152529 | 15.56° C | 53% | 1014.4 hPa | - | - | - | - |
| 1778151328 | 22.78° C | 34% | 1014 hPa | - | - | - | - |
| 1778150128 | 23.33° C | 33% | 1014 hPa | - | - | - | - |
| 1778148928 | 23.89° C | 34% | 1014 hPa | - | - | - | - |
| 1778147728 | 21.67° C | 36% | 1014 hPa | - | - | - | - |
| 1778146528 | 20.56° C | 40% | 1014 hPa | - | - | - | - |
| 1778145328 | 15.56° C | 49% | 1013.9 hPa | - | - | - | - |
| 1778144128 | 15.56° C | 49% | 1013.7 hPa | - | - | - | - |
* Rain since midnight (hover to see other rain measurements)
** Current wind speed in m/s (hover to see current wind gust speed)